sensor_id;sensor_type;location;lat;lon;timestamp;temperature;humidity
17701;DHT22;8969;48.576;12.580;2022-12-17T00:00:50;-0.20;99.90
17701;DHT22;8969;48.576;12.580;2022-12-17T00:03:35;-0.20;99.90
17701;DHT22;8969;48.576;12.580;2022-12-17T00:06:22;-0.20;99.90
17701;DHT22;8969;48.576;12.580;2022-12-17T00:09:08;-0.20;99.90
17701;DHT22;8969;48.576;12.580;2022-12-17T00:11:55;-0.20;99.90
17701;DHT22;8969;48.576;12.580;2022-12-17T00:14:41;-0.20;99.90
17701;DHT22;8969;48.576;12.580;2022-12-17T00:17:27;-0.20;99.90
17701;DHT22;8969;48.576;12.580;2022-12-17T00:20:14;-0.30;99.90
17701;DHT22;8969;48.576;12.580;2022-12-17T00:23:01;-0.30;99.90
17701;DHT22;8969;48.576;12.580;2022-12-17T00:25:53;-0.30;99.90
17701;DHT22;8969;48.576;12.580;2022-12-17T00:28:41;-0.30;99.90
17701;DHT22;8969;48.576;12.580;2022-12-17T00:31:29;-0.20;99.90
17701;DHT22;8969;48.576;12.580;2022-12-17T00:34:15;-0.30;99.90
17701;DHT22;8969;48.576;12.580;2022-12-17T00:37:04;-0.30;99.90
17701;DHT22;8969;48.576;12.580;2022-12-17T00:39:50;-0.20;99.90
17701;DHT22;8969;48.576;12.580;2022-12-17T00:42:35;-0.20;99.90
17701;DHT22;8969;48.576;12.580;2022-12-17T00:45:24;-0.20;99.90
17701;DHT22;8969;48.576;12.580;2022-12-17T00:48:10;-0.20;99.90
17701;DHT22;8969;48.576;12.580;2022-12-17T00:50:55;-0.30;99.90
17701;DHT22;8969;48.576;12.580;2022-12-17T00:53:41;-0.30;99.90
17701;DHT22;8969;48.576;12.580;2022-12-17T00:56:26;-0.30;99.90
17701;DHT22;8969;48.576;12.580;2022-12-17T00:59:12;-0.30;99.90
17701;DHT22;8969;48.576;12.580;2022-12-17T01:02:00;-0.20;99.90
17701;DHT22;8969;48.576;12.580;2022-12-17T01:04:46;-0.20;99.90
17701;DHT22;8969;48.576;12.580;2022-12-17T01:07:31;-0.30;99.90
17701;DHT22;8969;48.576;12.580;2022-12-17T01:10:19;-0.30;99.90
17701;DHT22;8969;48.576;12.580;2022-12-17T01:13:05;-0.30;99.90
17701;DHT22;8969;48.576;12.580;2022-12-17T01:15:50;-0.30;99.90
17701;DHT22;8969;48.576;12.580;2022-12-17T01:18:38;-0.30;99.90
17701;DHT22;8969;48.576;12.580;2022-12-17T01:21:23;-0.40;99.90
17701;DHT22;8969;48.576;12.580;2022-12-17T01:24:09;-0.40;99.90
17701;DHT22;8969;48.576;12.580;2022-12-17T01:26:54;-0.40;99.90
17701;DHT22;8969;48.576;12.580;2022-12-17T01:29:39;-0.40;99.90
17701;DHT22;8969;48.576;12.580;2022-12-17T01:32:25;-0.40;99.90
17701;DHT22;8969;48.576;12.580;2022-12-17T01:35:12;-0.40;99.90
17701;DHT22;8969;48.576;12.580;2022-12-17T01:37:58;-0.40;99.90
17701;DHT22;8969;48.576;12.580;2022-12-17T01:40:44;-0.40;99.90
17701;DHT22;8969;48.576;12.580;2022-12-17T01:43:37;-0.30;99.90
17701;DHT22;8969;48.576;12.580;2022-12-17T01:46:24;-0.40;99.90
17701;DHT22;8969;48.576;12.580;2022-12-17T01:49:10;-0.40;99.90
17701;DHT22;8969;48.576;12.580;2022-12-17T01:51:58;-0.40;99.90
17701;DHT22;8969;48.576;12.580;2022-12-17T01:54:45;-0.40;99.90
17701;DHT22;8969;48.576;12.580;2022-12-17T01:57:31;-0.50;99.90
17701;DHT22;8969;48.576;12.580;2022-12-17T02:00:18;-0.50;99.90
17701;DHT22;8969;48.576;12.580;2022-12-17T02:03:12;-0.50;99.90
17701;DHT22;8969;48.576;12.580;2022-12-17T02:06:03;-0.40;99.90
17701;DHT22;8969;48.576;12.580;2022-12-17T02:09:00;-0.50;99.90
17701;DHT22;8969;48.576;12.580;2022-12-17T02:11:54;-0.50;99.90
17701;DHT22;8969;48.576;12.580;2022-12-17T02:14:45;-0.50;99.90
17701;DHT22;8969;48.576;12.580;2022-12-17T02:17:36;-0.50;99.90
17701;DHT22;8969;48.576;12.580;2022-12-17T02:20:27;-0.50;99.90
17701;DHT22;8969;48.576;12.580;2022-12-17T02:23:28;-0.60;99.90
17701;DHT22;8969;48.576;12.580;2022-12-17T02:26:33;-0.60;99.90
17701;DHT22;8969;48.576;12.580;2022-12-17T02:29:21;-0.60;99.90
17701;DHT22;8969;48.576;12.580;2022-12-17T02:32:08;-0.60;99.90
17701;DHT22;8969;48.576;12.580;2022-12-17T02:34:56;-0.60;99.90
17701;DHT22;8969;48.576;12.580;2022-12-17T02:37:45;-0.60;99.90
17701;DHT22;8969;48.576;12.580;2022-12-17T02:40:32;-0.60;99.90
17701;DHT22;8969;48.576;12.580;2022-12-17T02:43:24;-0.60;99.90
17701;DHT22;8969;48.576;12.580;2022-12-17T02:46:13;-0.60;99.90
17701;DHT22;8969;48.576;12.580;2022-12-17T02:48:59;-0.60;99.90
17701;DHT22;8969;48.576;12.580;2022-12-17T02:51:46;-0.60;99.90
17701;DHT22;8969;48.576;12.580;2022-12-17T02:54:33;-0.60;99.90
17701;DHT22;8969;48.576;12.580;2022-12-17T02:57:19;-0.70;99.90
17701;DHT22;8969;48.576;12.580;2022-12-17T03:00:13;-0.60;99.90
17701;DHT22;8969;48.576;12.580;2022-12-17T03:02:59;-0.60;99.90
17701;DHT22;8969;48.576;12.580;2022-12-17T03:05:44;-0.60;99.90
17701;DHT22;8969;48.576;12.580;2022-12-17T03:08:30;-0.60;99.90
17701;DHT22;8969;48.576;12.580;2022-12-17T03:11:16;-0.70;99.90
17701;DHT22;8969;48.576;12.580;2022-12-17T03:14:01;-0.70;99.90
17701;DHT22;8969;48.576;12.580;2022-12-17T03:16:49;-0.70;99.90
17701;DHT22;8969;48.576;12.580;2022-12-17T03:19:37;-0.70;99.90
17701;DHT22;8969;48.576;12.580;2022-12-17T03:22:22;-0.70;99.90
17701;DHT22;8969;48.576;12.580;2022-12-17T03:25:08;-0.70;99.90
17701;DHT22;8969;48.576;12.580;2022-12-17T03:27:53;-0.70;99.90
17701;DHT22;8969;48.576;12.580;2022-12-17T03:30:39;-0.70;99.90
17701;DHT22;8969;48.576;12.580;2022-12-17T03:33:27;-0.70;99.90
17701;DHT22;8969;48.576;12.580;2022-12-17T03:36:12;-0.70;99.90
17701;DHT22;8969;48.576;12.580;2022-12-17T03:38:58;-0.70;99.90
17701;DHT22;8969;48.576;12.580;2022-12-17T03:41:42;-0.70;99.90
17701;DHT22;8969;48.576;12.580;2022-12-17T03:44:28;-0.70;99.90
17701;DHT22;8969;48.576;12.580;2022-12-17T03:47:14;-0.70;99.90
17701;DHT22;8969;48.576;12.580;2022-12-17T03:50:01;-0.70;99.90
17701;DHT22;8969;48.576;12.580;2022-12-17T03:52:46;-0.70;99.90
17701;DHT22;8969;48.576;12.580;2022-12-17T03:55:32;-0.70;99.90
17701;DHT22;8969;48.576;12.580;2022-12-17T03:58:18;-0.70;99.90
17701;DHT22;8969;48.576;12.580;2022-12-17T04:01:04;-0.70;99.90
17701;DHT22;8969;48.576;12.580;2022-12-17T04:03:49;-0.60;99.90
17701;DHT22;8969;48.576;12.580;2022-12-17T04:06:33;-0.70;99.90
17701;DHT22;8969;48.576;12.580;2022-12-17T04:09:30;-0.60;99.90
17701;DHT22;8969;48.576;12.580;2022-12-17T04:12:15;-0.60;99.90
17701;DHT22;8969;48.576;12.580;2022-12-17T04:15:01;-0.70;99.90
17701;DHT22;8969;48.576;12.580;2022-12-17T04:17:52;-0.70;99.90
17701;DHT22;8969;48.576;12.580;2022-12-17T04:20:38;-0.60;99.90
17701;DHT22;8969;48.576;12.580;2022-12-17T04:23:25;-0.60;99.90
17701;DHT22;8969;48.576;12.580;2022-12-17T04:26:10;-0.60;99.90
17701;DHT22;8969;48.576;12.580;2022-12-17T04:28:56;-0.60;99.90
17701;DHT22;8969;48.576;12.580;2022-12-17T04:31:47;-0.60;99.90
17701;DHT22;8969;48.576;12.580;2022-12-17T04:34:33;-0.70;99.90
17701;DHT22;8969;48.576;12.580;2022-12-17T04:37:18;-0.70;99.90
17701;DHT22;8969;48.576;12.580;2022-12-17T04:40:08;-0.70;99.90
17701;DHT22;8969;48.576;12.580;2022-12-17T04:42:53;-0.70;99.90
17701;DHT22;8969;48.576;12.580;2022-12-17T04:45:39;-0.70;99.90
17701;DHT22;8969;48.576;12.580;2022-12-17T04:48:25;-0.70;99.90
17701;DHT22;8969;48.576;12.580;2022-12-17T04:51:10;-0.70;99.90
17701;DHT22;8969;48.576;12.580;2022-12-17T04:53:56;-0.70;99.90
17701;DHT22;8969;48.576;12.580;2022-12-17T04:56:43;-0.70;99.90
17701;DHT22;8969;48.576;12.580;2022-12-17T04:59:29;-0.60;99.90
17701;DHT22;8969;48.576;12.580;2022-12-17T05:02:15;-0.70;99.90
17701;DHT22;8969;48.576;12.580;2022-12-17T05:05:08;-0.70;99.90
17701;DHT22;8969;48.576;12.580;2022-12-17T05:07:55;-0.70;99.90
17701;DHT22;8969;48.576;12.580;2022-12-17T05:10:42;-0.70;99.90
17701;DHT22;8969;48.576;12.580;2022-12-17T05:13:29;-0.80;99.90
17701;DHT22;8969;48.576;12.580;2022-12-17T05:16:15;-0.70;99.90
17701;DHT22;8969;48.576;12.580;2022-12-17T05:19:01;-0.70;99.90
17701;DHT22;8969;48.576;12.580;2022-12-17T05:21:48;-0.70;99.90
17701;DHT22;8969;48.576;12.580;2022-12-17T05:24:33;-0.70;99.90
17701;DHT22;8969;48.576;12.580;2022-12-17T05:27:19;-0.70;99.90
17701;DHT22;8969;48.576;12.580;2022-12-17T05:30:08;-0.70;99.90
17701;DHT22;8969;48.576;12.580;2022-12-17T05:32:58;-0.70;99.90
17701;DHT22;8969;48.576;12.580;2022-12-17T05:35:43;-0.70;99.90
17701;DHT22;8969;48.576;12.580;2022-12-17T05:38:29;-0.80;99.90
17701;DHT22;8969;48.576;12.580;2022-12-17T05:41:29;-0.80;99.90
17701;DHT22;8969;48.576;12.580;2022-12-17T05:44:15;-0.80;99.90
17701;DHT22;8969;48.576;12.580;2022-12-17T05:47:14;-0.80;99.90
17701;DHT22;8969;48.576;12.580;2022-12-17T05:49:59;-0.80;99.90
17701;DHT22;8969;48.576;12.580;2022-12-17T05:52:45;-0.80;99.90
17701;DHT22;8969;48.576;12.580;2022-12-17T05:55:30;-0.80;99.90
17701;DHT22;8969;48.576;12.580;2022-12-17T05:58:16;-0.80;99.90
17701;DHT22;8969;48.576;12.580;2022-12-17T06:01:03;-0.80;99.90
17701;DHT22;8969;48.576;12.580;2022-12-17T06:03:51;-0.80;99.90
17701;DHT22;8969;48.576;12.580;2022-12-17T06:06:37;-0.90;99.90
17701;DHT22;8969;48.576;12.580;2022-12-17T06:09:23;-0.80;99.90
17701;DHT22;8969;48.576;12.580;2022-12-17T06:12:09;-0.80;99.90
17701;DHT22;8969;48.576;12.580;2022-12-17T06:14:55;-0.80;99.90
17701;DHT22;8969;48.576;12.580;2022-12-17T06:17:40;-0.80;99.90
17701;DHT22;8969;48.576;12.580;2022-12-17T06:20:27;-0.90;99.90
17701;DHT22;8969;48.576;12.580;2022-12-17T06:23:13;-0.90;99.90
17701;DHT22;8969;48.576;12.580;2022-12-17T06:25:59;-0.90;99.90
17701;DHT22;8969;48.576;12.580;2022-12-17T06:28:53;-0.90;99.90
17701;DHT22;8969;48.576;12.580;2022-12-17T06:31:38;-0.90;99.90
17701;DHT22;8969;48.576;12.580;2022-12-17T06:34:24;-0.90;99.90
17701;DHT22;8969;48.576;12.580;2022-12-17T06:37:11;-0.90;99.90
17701;DHT22;8969;48.576;12.580;2022-12-17T06:39:56;-0.90;99.90
17701;DHT22;8969;48.576;12.580;2022-12-17T06:42:51;-1.00;99.90
17701;DHT22;8969;48.576;12.580;2022-12-17T06:45:37;-0.90;99.90
17701;DHT22;8969;48.576;12.580;2022-12-17T06:48:24;-0.90;99.90
17701;DHT22;8969;48.576;12.580;2022-12-17T06:51:10;-0.90;99.90
17701;DHT22;8969;48.576;12.580;2022-12-17T06:53:57;-0.90;99.90
17701;DHT22;8969;48.576;12.580;2022-12-17T06:56:43;-0.90;99.90
17701;DHT22;8969;48.576;12.580;2022-12-17T06:59:29;-0.90;99.90
17701;DHT22;8969;48.576;12.580;2022-12-17T07:02:14;-0.90;99.90
17701;DHT22;8969;48.576;12.580;2022-12-17T07:05:00;-0.90;99.90
17701;DHT22;8969;48.576;12.580;2022-12-17T07:07:46;-1.00;99.90
17701;DHT22;8969;48.576;12.580;2022-12-17T07:10:32;-0.90;99.90
17701;DHT22;8969;48.576;12.580;2022-12-17T07:13:24;-1.00;99.90
17701;DHT22;8969;48.576;12.580;2022-12-17T07:16:09;-1.00;99.90
17701;DHT22;8969;48.576;12.580;2022-12-17T07:18:57;-1.00;99.90
17701;DHT22;8969;48.576;12.580;2022-12-17T07:21:42;-0.90;99.90
17701;DHT22;8969;48.576;12.580;2022-12-17T07:24:28;-0.90;99.90
17701;DHT22;8969;48.576;12.580;2022-12-17T07:27:15;-0.90;99.90
17701;DHT22;8969;48.576;12.580;2022-12-17T07:30:01;-1.00;99.90
17701;DHT22;8969;48.576;12.580;2022-12-17T07:32:56;-0.90;99.90
17701;DHT22;8969;48.576;12.580;2022-12-17T07:35:42;-0.90;99.90
17701;DHT22;8969;48.576;12.580;2022-12-17T07:38:27;-0.90;99.90
17701;DHT22;8969;48.576;12.580;2022-12-17T07:41:13;-0.90;99.90
17701;DHT22;8969;48.576;12.580;2022-12-17T07:44:00;-0.90;99.90
17701;DHT22;8969;48.576;12.580;2022-12-17T07:46:46;-0.90;99.90
17701;DHT22;8969;48.576;12.580;2022-12-17T07:49:32;-0.90;99.90
17701;DHT22;8969;48.576;12.580;2022-12-17T07:52:17;-0.90;99.90
17701;DHT22;8969;48.576;12.580;2022-12-17T07:55:04;-0.90;99.90
17701;DHT22;8969;48.576;12.580;2022-12-17T07:57:57;-0.90;99.90
17701;DHT22;8969;48.576;12.580;2022-12-17T08:00:44;-0.80;99.90
17701;DHT22;8969;48.576;12.580;2022-12-17T08:03:30;-0.80;99.90
17701;DHT22;8969;48.576;12.580;2022-12-17T08:06:16;-0.80;99.90
17701;DHT22;8969;48.576;12.580;2022-12-17T08:09:01;-0.80;99.90
17701;DHT22;8969;48.576;12.580;2022-12-17T08:11:47;-0.80;99.90
17701;DHT22;8969;48.576;12.580;2022-12-17T08:14:33;-0.80;99.90
17701;DHT22;8969;48.576;12.580;2022-12-17T08:17:20;-0.80;99.90
17701;DHT22;8969;48.576;12.580;2022-12-17T08:20:06;-0.80;99.90
17701;DHT22;8969;48.576;12.580;2022-12-17T08:22:58;-0.80;99.90
17701;DHT22;8969;48.576;12.580;2022-12-17T08:25:44;-0.80;99.90
17701;DHT22;8969;48.576;12.580;2022-12-17T08:28:29;-0.70;99.90
17701;DHT22;8969;48.576;12.580;2022-12-17T08:31:17;-0.60;99.90
17701;DHT22;8969;48.576;12.580;2022-12-17T08:34:05;-0.70;99.90
17701;DHT22;8969;48.576;12.580;2022-12-17T08:36:50;-0.70;99.90
17701;DHT22;8969;48.576;12.580;2022-12-17T08:39:36;-0.90;99.90
17701;DHT22;8969;48.576;12.580;2022-12-17T08:42:21;-0.80;99.90
17701;DHT22;8969;48.576;12.580;2022-12-17T08:45:07;-0.80;99.90
17701;DHT22;8969;48.576;12.580;2022-12-17T08:48:01;-0.80;99.90
17701;DHT22;8969;48.576;12.580;2022-12-17T08:50:48;-0.80;99.90
17701;DHT22;8969;48.576;12.580;2022-12-17T08:53:34;-0.70;99.90
17701;DHT22;8969;48.576;12.580;2022-12-17T08:56:20;-0.70;99.90
17701;DHT22;8969;48.576;12.580;2022-12-17T08:59:05;-0.80;99.90
17701;DHT22;8969;48.576;12.580;2022-12-17T09:01:51;-0.80;99.90
17701;DHT22;8969;48.576;12.580;2022-12-17T09:04:36;-0.70;99.90
17701;DHT22;8969;48.576;12.580;2022-12-17T09:07:23;-0.60;99.90
17701;DHT22;8969;48.576;12.580;2022-12-17T09:10:09;-0.70;99.90
17701;DHT22;8969;48.576;12.580;2022-12-17T09:13:09;-0.60;99.90
17701;DHT22;8969;48.576;12.580;2022-12-17T09:15:55;-0.60;99.90
17701;DHT22;8969;48.576;12.580;2022-12-17T09:18:44;-0.70;99.90
17701;DHT22;8969;48.576;12.580;2022-12-17T09:21:30;-0.70;99.90
17701;DHT22;8969;48.576;12.580;2022-12-17T09:24:17;-0.70;99.90
17701;DHT22;8969;48.576;12.580;2022-12-17T09:27:03;-0.60;99.90
17701;DHT22;8969;48.576;12.580;2022-12-17T09:29:49;-0.50;99.90
17701;DHT22;8969;48.576;12.580;2022-12-17T09:32:34;-0.50;99.90
17701;DHT22;8969;48.576;12.580;2022-12-17T09:35:20;-0.30;99.90
17701;DHT22;8969;48.576;12.580;2022-12-17T09:38:05;-0.20;99.90
17701;DHT22;8969;48.576;12.580;2022-12-17T09:40:53;-0.20;99.90
17701;DHT22;8969;48.576;12.580;2022-12-17T09:43:43;0.00;99.90
17701;DHT22;8969;48.576;12.580;2022-12-17T09:46:34;-0.10;99.90
17701;DHT22;8969;48.576;12.580;2022-12-17T09:49:23;0.00;99.90
17701;DHT22;8969;48.576;12.580;2022-12-17T09:52:18;0.10;99.90
17701;DHT22;8969;48.576;12.580;2022-12-17T09:55:17;0.10;99.90
17701;DHT22;8969;48.576;12.580;2022-12-17T09:58:13;0.20;99.90
17701;DHT22;8969;48.576;12.580;2022-12-17T10:01:03;0.20;99.90
17701;DHT22;8969;48.576;12.580;2022-12-17T10:03:49;0.20;99.90
17701;DHT22;8969;48.576;12.580;2022-12-17T10:06:34;0.30;99.90
17701;DHT22;8969;48.576;12.580;2022-12-17T10:09:20;0.40;99.90
17701;DHT22;8969;48.576;12.580;2022-12-17T10:12:13;0.50;99.90
17701;DHT22;8969;48.576;12.580;2022-12-17T10:15:01;0.40;99.90
17701;DHT22;8969;48.576;12.580;2022-12-17T10:17:46;0.40;99.90
17701;DHT22;8969;48.576;12.580;2022-12-17T10:20:37;0.40;99.90
17701;DHT22;8969;48.576;12.580;2022-12-17T10:23:25;0.40;99.90
17701;DHT22;8969;48.576;12.580;2022-12-17T10:26:16;0.40;99.90
17701;DHT22;8969;48.576;12.580;2022-12-17T10:29:03;0.40;99.90
17701;DHT22;8969;48.576;12.580;2022-12-17T10:31:50;0.50;99.90
17701;DHT22;8969;48.576;12.580;2022-12-17T10:34:37;0.50;99.90
17701;DHT22;8969;48.576;12.580;2022-12-17T10:37:32;0.40;99.90
17701;DHT22;8969;48.576;12.580;2022-12-17T10:40:23;0.60;99.90
17701;DHT22;8969;48.576;12.580;2022-12-17T10:43:23;0.60;99.90
17701;DHT22;8969;48.576;12.580;2022-12-17T10:46:09;0.60;99.90
17701;DHT22;8969;48.576;12.580;2022-12-17T10:49:09;0.60;99.90
17701;DHT22;8969;48.576;12.580;2022-12-17T10:52:04;0.60;99.90
17701;DHT22;8969;48.576;12.580;2022-12-17T10:54:58;0.60;99.90
17701;DHT22;8969;48.576;12.580;2022-12-17T10:57:44;0.60;99.90
17701;DHT22;8969;48.576;12.580;2022-12-17T11:00:33;0.60;99.90
17701;DHT22;8969;48.576;12.580;2022-12-17T11:03:29;0.70;99.90
17701;DHT22;8969;48.576;12.580;2022-12-17T11:06:23;0.60;99.90
17701;DHT22;8969;48.576;12.580;2022-12-17T11:09:18;0.70;99.90
17701;DHT22;8969;48.576;12.580;2022-12-17T11:12:09;0.60;99.90
17701;DHT22;8969;48.576;12.580;2022-12-17T11:15:03;0.70;99.90
17701;DHT22;8969;48.576;12.580;2022-12-17T11:17:52;0.70;99.90
17701;DHT22;8969;48.576;12.580;2022-12-17T11:20:46;0.70;99.90
17701;DHT22;8969;48.576;12.580;2022-12-17T11:23:36;0.60;99.90
17701;DHT22;8969;48.576;12.580;2022-12-17T11:26:33;0.70;99.90
17701;DHT22;8969;48.576;12.580;2022-12-17T11:29:21;0.70;99.90
17701;DHT22;8969;48.576;12.580;2022-12-17T11:32:29;0.70;99.90
17701;DHT22;8969;48.576;12.580;2022-12-17T11:35:24;0.80;99.90
17701;DHT22;8969;48.576;12.580;2022-12-17T11:38:37;0.70;99.90
17701;DHT22;8969;48.576;12.580;2022-12-17T11:41:33;0.70;99.90
17701;DHT22;8969;48.576;12.580;2022-12-17T11:44:31;0.70;99.90
17701;DHT22;8969;48.576;12.580;2022-12-17T11:47:29;0.80;99.90
17701;DHT22;8969;48.576;12.580;2022-12-17T11:50:26;0.80;99.90
17701;DHT22;8969;48.576;12.580;2022-12-17T11:53:24;0.60;99.90
17701;DHT22;8969;48.576;12.580;2022-12-17T11:56:18;0.50;99.90
17701;DHT22;8969;48.576;12.580;2022-12-17T11:59:23;0.60;99.90
17701;DHT22;8969;48.576;12.580;2022-12-17T12:02:31;0.60;99.90
17701;DHT22;8969;48.576;12.580;2022-12-17T12:05:31;0.60;99.90
17701;DHT22;8969;48.576;12.580;2022-12-17T12:08:26;0.50;99.90
17701;DHT22;8969;48.576;12.580;2022-12-17T12:11:22;0.60;99.90
17701;DHT22;8969;48.576;12.580;2022-12-17T12:14:19;0.50;99.90
17701;DHT22;8969;48.576;12.580;2022-12-17T12:17:19;0.60;99.90
17701;DHT22;8969;48.576;12.580;2022-12-17T12:20:12;0.60;99.90
17701;DHT22;8969;48.576;12.580;2022-12-17T12:23:08;0.70;99.90
17701;DHT22;8969;48.576;12.580;2022-12-17T12:26:04;0.70;99.90
17701;DHT22;8969;48.576;12.580;2022-12-17T12:28:58;0.70;99.90
17701;DHT22;8969;48.576;12.580;2022-12-17T12:31:50;0.70;99.90
17701;DHT22;8969;48.576;12.580;2022-12-17T12:34:38;0.60;99.90
17701;DHT22;8969;48.576;12.580;2022-12-17T12:37:24;0.60;99.90
17701;DHT22;8969;48.576;12.580;2022-12-17T12:40:15;0.60;99.90
17701;DHT22;8969;48.576;12.580;2022-12-17T12:43:13;0.50;99.90
17701;DHT22;8969;48.576;12.580;2022-12-17T12:46:06;0.50;99.90
17701;DHT22;8969;48.576;12.580;2022-12-17T12:48:59;0.30;99.90
17701;DHT22;8969;48.576;12.580;2022-12-17T12:51:49;0.20;99.90
17701;DHT22;8969;48.576;12.580;2022-12-17T12:54:50;0.40;99.90
17701;DHT22;8969;48.576;12.580;2022-12-17T12:57:39;0.30;99.90
17701;DHT22;8969;48.576;12.580;2022-12-17T13:00:33;0.40;99.90
17701;DHT22;8969;48.576;12.580;2022-12-17T13:03:30;0.20;99.90
17701;DHT22;8969;48.576;12.580;2022-12-17T13:06:39;0.30;99.90
17701;DHT22;8969;48.576;12.580;2022-12-17T13:09:28;0.30;99.90
17701;DHT22;8969;48.576;12.580;2022-12-17T13:12:21;0.20;99.90
17701;DHT22;8969;48.576;12.580;2022-12-17T13:14:53;0.20;99.90
17701;DHT22;8969;48.576;12.580;2022-12-17T13:17:29;0.20;99.90
17701;DHT22;8969;48.576;12.580;2022-12-17T13:22:52;0.20;99.90
17701;DHT22;8969;48.576;12.580;2022-12-17T13:25:22;0.10;99.90
17701;DHT22;8969;48.576;12.580;2022-12-17T13:27:50;0.10;99.90
17701;DHT22;8969;48.576;12.580;2022-12-17T13:30:30;0.00;99.90
17701;DHT22;8969;48.576;12.580;2022-12-17T13:33:17;-0.10;99.90
17701;DHT22;8969;48.576;12.580;2022-12-17T13:35:59;-0.10;99.90
17701;DHT22;8969;48.576;12.580;2022-12-17T13:38:39;-0.20;99.90
17701;DHT22;8969;48.576;12.580;2022-12-17T13:41:12;-0.20;99.90
17701;DHT22;8969;48.576;12.580;2022-12-17T13:43:43;-0.30;99.90
17701;DHT22;8969;48.576;12.580;2022-12-17T13:46:17;-0.30;99.90
17701;DHT22;8969;48.576;12.580;2022-12-17T13:48:53;-0.30;99.90
17701;DHT22;8969;48.576;12.580;2022-12-17T13:51:26;-0.40;99.90
17701;DHT22;8969;48.576;12.580;2022-12-17T13:53:58;-0.50;99.90
17701;DHT22;8969;48.576;12.580;2022-12-17T13:56:29;-0.50;99.90
17701;DHT22;8969;48.576;12.580;2022-12-17T13:58:58;-0.50;99.90
17701;DHT22;8969;48.576;12.580;2022-12-17T14:01:43;-0.60;99.90
17701;DHT22;8969;48.576;12.580;2022-12-17T14:04:19;-0.50;99.90
17701;DHT22;8969;48.576;12.580;2022-12-17T14:06:50;-0.60;99.90
17701;DHT22;8969;48.576;12.580;2022-12-17T14:09:20;-0.60;99.90
17701;DHT22;8969;48.576;12.580;2022-12-17T14:11:49;-0.60;99.90
17701;DHT22;8969;48.576;12.580;2022-12-17T14:14:36;-0.60;99.90
17701;DHT22;8969;48.576;12.580;2022-12-17T14:17:06;-0.70;99.90
17701;DHT22;8969;48.576;12.580;2022-12-17T14:19:42;-0.80;99.90
17701;DHT22;8969;48.576;12.580;2022-12-17T14:22:15;-0.90;99.90
17701;DHT22;8969;48.576;12.580;2022-12-17T14:24:45;-1.00;99.90
17701;DHT22;8969;48.576;12.580;2022-12-17T14:27:22;-1.00;99.90
17701;DHT22;8969;48.576;12.580;2022-12-17T14:29:52;-1.10;99.90
17701;DHT22;8969;48.576;12.580;2022-12-17T14:32:25;-1.10;99.90
17701;DHT22;8969;48.576;12.580;2022-12-17T14:34:53;-1.20;99.90
17701;DHT22;8969;48.576;12.580;2022-12-17T14:37:28;-1.20;99.90
17701;DHT22;8969;48.576;12.580;2022-12-17T14:40:01;-1.30;99.90
17701;DHT22;8969;48.576;12.580;2022-12-17T14:42:30;-1.30;99.90
17701;DHT22;8969;48.576;12.580;2022-12-17T14:45:04;-1.40;99.90
17701;DHT22;8969;48.576;12.580;2022-12-17T14:47:34;-1.50;99.90
17701;DHT22;8969;48.576;12.580;2022-12-17T14:50:07;-1.60;99.90
17701;DHT22;8969;48.576;12.580;2022-12-17T14:52:53;-1.70;99.90
17701;DHT22;8969;48.576;12.580;2022-12-17T14:55:26;-1.70;99.90
17701;DHT22;8969;48.576;12.580;2022-12-17T14:58:21;-1.80;99.90
17701;DHT22;8969;48.576;12.580;2022-12-17T15:00:52;-1.90;99.90
17701;DHT22;8969;48.576;12.580;2022-12-17T15:03:25;-1.90;99.90
17701;DHT22;8969;48.576;12.580;2022-12-17T15:05:57;-2.00;99.90
17701;DHT22;8969;48.576;12.580;2022-12-17T15:08:30;-2.00;99.90
17701;DHT22;8969;48.576;12.580;2022-12-17T15:11:02;-2.00;99.90
17701;DHT22;8969;48.576;12.580;2022-12-17T15:13:30;-2.10;99.90
17701;DHT22;8969;48.576;12.580;2022-12-17T15:15:58;-2.20;99.90
17701;DHT22;8969;48.576;12.580;2022-12-17T15:18:27;-2.30;99.90
17701;DHT22;8969;48.576;12.580;2022-12-17T15:20:55;-2.40;99.90
17701;DHT22;8969;48.576;12.580;2022-12-17T15:23:24;-2.40;99.90
17701;DHT22;8969;48.576;12.580;2022-12-17T15:25:53;-2.40;99.90
17701;DHT22;8969;48.576;12.580;2022-12-17T15:28:22;-2.50;99.90
17701;DHT22;8969;48.576;12.580;2022-12-17T15:30:50;-2.60;99.90
17701;DHT22;8969;48.576;12.580;2022-12-17T15:33:18;-2.70;99.90
17701;DHT22;8969;48.576;12.580;2022-12-17T15:35:47;-2.90;99.90
17701;DHT22;8969;48.576;12.580;2022-12-17T15:38:15;-2.90;99.90
17701;DHT22;8969;48.576;12.580;2022-12-17T15:40:43;-3.00;99.90
17701;DHT22;8969;48.576;12.580;2022-12-17T15:43:13;-3.10;99.90
17701;DHT22;8969;48.576;12.580;2022-12-17T15:45:42;-3.10;99.90
17701;DHT22;8969;48.576;12.580;2022-12-17T15:48:13;-3.10;99.90
17701;DHT22;8969;48.576;12.580;2022-12-17T15:50:42;-3.20;99.90
17701;DHT22;8969;48.576;12.580;2022-12-17T15:53:11;-3.30;99.90
17701;DHT22;8969;48.576;12.580;2022-12-17T15:55:39;-3.40;99.90
17701;DHT22;8969;48.576;12.580;2022-12-17T15:58:08;-3.40;99.90
17701;DHT22;8969;48.576;12.580;2022-12-17T16:00:38;-3.50;99.90
17701;DHT22;8969;48.576;12.580;2022-12-17T16:03:07;-3.50;99.90
17701;DHT22;8969;48.576;12.580;2022-12-17T16:05:35;-3.50;99.90
17701;DHT22;8969;48.576;12.580;2022-12-17T16:08:03;-3.60;99.90
17701;DHT22;8969;48.576;12.580;2022-12-17T16:10:32;-3.70;99.90
17701;DHT22;8969;48.576;12.580;2022-12-17T16:13:00;-3.70;99.90
17701;DHT22;8969;48.576;12.580;2022-12-17T16:15:28;-3.70;99.90
17701;DHT22;8969;48.576;12.580;2022-12-17T16:17:58;-3.70;99.90
17701;DHT22;8969;48.576;12.580;2022-12-17T16:20:27;-3.80;99.90
17701;DHT22;8969;48.576;12.580;2022-12-17T16:22:55;-3.80;99.90
17701;DHT22;8969;48.576;12.580;2022-12-17T16:25:23;-3.90;99.90
17701;DHT22;8969;48.576;12.580;2022-12-17T16:27:52;-4.00;99.90
17701;DHT22;8969;48.576;12.580;2022-12-17T16:30:20;-4.00;99.90
17701;DHT22;8969;48.576;12.580;2022-12-17T16:32:48;-4.10;99.90
17701;DHT22;8969;48.576;12.580;2022-12-17T16:35:18;-4.10;99.90
17701;DHT22;8969;48.576;12.580;2022-12-17T16:37:47;-4.10;99.90
17701;DHT22;8969;48.576;12.580;2022-12-17T16:40:15;-4.10;99.90
17701;DHT22;8969;48.576;12.580;2022-12-17T16:42:43;-4.20;99.90
17701;DHT22;8969;48.576;12.580;2022-12-17T16:45:11;-4.30;99.90
17701;DHT22;8969;48.576;12.580;2022-12-17T16:47:40;-4.40;99.90
17701;DHT22;8969;48.576;12.580;2022-12-17T16:50:07;-4.40;99.90
17701;DHT22;8969;48.576;12.580;2022-12-17T16:52:37;-4.40;99.90
17701;DHT22;8969;48.576;12.580;2022-12-17T16:55:07;-4.40;99.90
17701;DHT22;8969;48.576;12.580;2022-12-17T16:57:37;-4.40;99.90
17701;DHT22;8969;48.576;12.580;2022-12-17T17:00:06;-4.50;99.90
17701;DHT22;8969;48.576;12.580;2022-12-17T17:02:34;-4.50;99.90
17701;DHT22;8969;48.576;12.580;2022-12-17T17:05:04;-4.50;99.90
17701;DHT22;8969;48.576;12.580;2022-12-17T17:07:32;-4.40;99.90
17701;DHT22;8969;48.576;12.580;2022-12-17T17:10:02;-4.50;99.90
17701;DHT22;8969;48.576;12.580;2022-12-17T17:12:30;-4.70;99.90
17701;DHT22;8969;48.576;12.580;2022-12-17T17:14:58;-4.70;99.90
17701;DHT22;8969;48.576;12.580;2022-12-17T17:17:28;-4.70;99.90
17701;DHT22;8969;48.576;12.580;2022-12-17T17:20:17;-4.80;99.90
17701;DHT22;8969;48.576;12.580;2022-12-17T17:22:45;-4.80;99.90
17701;DHT22;8969;48.576;12.580;2022-12-17T17:25:14;-4.80;99.90